sensor_id;sensor_type;location;lat;lon;timestamp;P1;durP1;ratioP1;P2;durP2;ratioP2
19509;SDS011;9896;42.486;26.506;2023-04-03T00:01:31;5.40;;;3.27;;
19509;SDS011;9896;42.486;26.506;2023-04-03T00:03:57;3.97;;;3.37;;
19509;SDS011;9896;42.486;26.506;2023-04-03T00:06:24;3.63;;;2.90;;
19509;SDS011;9896;42.486;26.506;2023-04-03T00:08:50;3.87;;;3.10;;
19509;SDS011;9896;42.486;26.506;2023-04-03T00:11:17;5.80;;;2.67;;
19509;SDS011;9896;42.486;26.506;2023-04-03T00:13:44;4.50;;;2.90;;
19509;SDS011;9896;42.486;26.506;2023-04-03T00:16:09;6.53;;;2.70;;
19509;SDS011;9896;42.486;26.506;2023-04-03T00:18:35;5.27;;;2.60;;
19509;SDS011;9896;42.486;26.506;2023-04-03T00:21:02;3.43;;;2.17;;
19509;SDS011;9896;42.486;26.506;2023-04-03T00:23:27;3.23;;;1.87;;
19509;SDS011;9896;42.486;26.506;2023-04-03T00:25:53;4.13;;;2.30;;
19509;SDS011;9896;42.486;26.506;2023-04-03T00:28:18;3.77;;;2.40;;
19509;SDS011;9896;42.486;26.506;2023-04-03T00:30:44;4.93;;;2.60;;
19509;SDS011;9896;42.486;26.506;2023-04-03T00:33:13;4.17;;;3.00;;
19509;SDS011;9896;42.486;26.506;2023-04-03T00:35:39;3.80;;;3.03;;
19509;SDS011;9896;42.486;26.506;2023-04-03T00:38:04;3.40;;;2.83;;
19509;SDS011;9896;42.486;26.506;2023-04-03T00:40:33;4.07;;;3.20;;
19509;SDS011;9896;42.486;26.506;2023-04-03T00:43:00;4.03;;;3.03;;
19509;SDS011;9896;42.486;26.506;2023-04-03T00:45:29;4.50;;;2.77;;
19509;SDS011;9896;42.486;26.506;2023-04-03T00:48:02;4.10;;;3.00;;
19509;SDS011;9896;42.486;26.506;2023-04-03T00:50:31;5.30;;;2.87;;
19509;SDS011;9896;42.486;26.506;2023-04-03T00:52:59;6.47;;;3.30;;
19509;SDS011;9896;42.486;26.506;2023-04-03T00:55:25;3.67;;;2.80;;
19509;SDS011;9896;42.486;26.506;2023-04-03T00:57:52;5.17;;;2.60;;
19509;SDS011;9896;42.486;26.506;2023-04-03T01:00:20;4.97;;;3.10;;
19509;SDS011;9896;42.486;26.506;2023-04-03T01:02:48;7.07;;;2.97;;
19509;SDS011;9896;42.486;26.506;2023-04-03T01:05:14;5.13;;;3.03;;
19509;SDS011;9896;42.486;26.506;2023-04-03T01:07:42;7.43;;;3.40;;
19509;SDS011;9896;42.486;26.506;2023-04-03T01:10:09;5.97;;;2.80;;
19509;SDS011;9896;42.486;26.506;2023-04-03T01:12:40;4.70;;;2.53;;
19509;SDS011;9896;42.486;26.506;2023-04-03T01:15:07;4.47;;;3.30;;
19509;SDS011;9896;42.486;26.506;2023-04-03T01:22:43;6.50;;;3.23;;
19509;SDS011;9896;42.486;26.506;2023-04-03T01:25:25;6.83;;;2.90;;
19509;SDS011;9896;42.486;26.506;2023-04-03T01:27:51;4.03;;;2.80;;
19509;SDS011;9896;42.486;26.506;2023-04-03T01:30:17;9.43;;;3.50;;
19509;SDS011;9896;42.486;26.506;2023-04-03T01:32:45;10.37;;;3.23;;
19509;SDS011;9896;42.486;26.506;2023-04-03T01:35:10;6.60;;;3.00;;
19509;SDS011;9896;42.486;26.506;2023-04-03T01:37:36;5.20;;;3.47;;
19509;SDS011;9896;42.486;26.506;2023-04-03T01:40:02;5.00;;;2.73;;
19509;SDS011;9896;42.486;26.506;2023-04-03T01:42:29;4.67;;;3.30;;
19509;SDS011;9896;42.486;26.506;2023-04-03T01:44:54;8.67;;;3.17;;
19509;SDS011;9896;42.486;26.506;2023-04-03T01:47:21;6.10;;;3.57;;
19509;SDS011;9896;42.486;26.506;2023-04-03T01:49:47;6.27;;;3.00;;
19509;SDS011;9896;42.486;26.506;2023-04-03T01:52:12;7.47;;;3.50;;
19509;SDS011;9896;42.486;26.506;2023-04-03T01:54:38;7.33;;;2.87;;
19509;SDS011;9896;42.486;26.506;2023-04-03T01:57:03;6.93;;;3.20;;
19509;SDS011;9896;42.486;26.506;2023-04-03T01:59:28;7.20;;;3.70;;
19509;SDS011;9896;42.486;26.506;2023-04-03T02:01:54;7.97;;;4.53;;
19509;SDS011;9896;42.486;26.506;2023-04-03T02:04:20;11.63;;;6.10;;
19509;SDS011;9896;42.486;26.506;2023-04-03T02:06:45;21.37;;;8.80;;
19509;SDS011;9896;42.486;26.506;2023-04-03T02:09:11;10.23;;;4.67;;
19509;SDS011;9896;42.486;26.506;2023-04-03T02:11:36;13.73;;;7.23;;
19509;SDS011;9896;42.486;26.506;2023-04-03T02:14:02;10.53;;;5.50;;
19509;SDS011;9896;42.486;26.506;2023-04-03T02:16:27;15.80;;;6.43;;
19509;SDS011;9896;42.486;26.506;2023-04-03T02:18:53;6.30;;;4.87;;
19509;SDS011;9896;42.486;26.506;2023-04-03T02:21:19;5.87;;;4.67;;
19509;SDS011;9896;42.486;26.506;2023-04-03T02:23:45;7.07;;;4.77;;
19509;SDS011;9896;42.486;26.506;2023-04-03T02:26:11;7.63;;;4.50;;
19509;SDS011;9896;42.486;26.506;2023-04-03T02:28:38;10.03;;;5.10;;
19509;SDS011;9896;42.486;26.506;2023-04-03T02:31:04;8.57;;;4.53;;
19509;SDS011;9896;42.486;26.506;2023-04-03T02:33:31;6.83;;;4.80;;
19509;SDS011;9896;42.486;26.506;2023-04-03T02:35:57;8.80;;;4.40;;
19509;SDS011;9896;42.486;26.506;2023-04-03T02:38:23;6.67;;;4.70;;
19509;SDS011;9896;42.486;26.506;2023-04-03T02:40:49;9.80;;;5.00;;
19509;SDS011;9896;42.486;26.506;2023-04-03T02:43:16;8.80;;;5.73;;
19509;SDS011;9896;42.486;26.506;2023-04-03T02:45:41;9.53;;;6.20;;
19509;SDS011;9896;42.486;26.506;2023-04-03T02:48:07;10.53;;;5.63;;
19509;SDS011;9896;42.486;26.506;2023-04-03T02:50:32;10.47;;;5.83;;
19509;SDS011;9896;42.486;26.506;2023-04-03T02:52:58;10.87;;;5.80;;
19509;SDS011;9896;42.486;26.506;2023-04-03T02:55:24;10.33;;;5.40;;
19509;SDS011;9896;42.486;26.506;2023-04-03T02:57:49;7.57;;;5.13;;
19509;SDS011;9896;42.486;26.506;2023-04-03T03:00:15;10.77;;;5.73;;
19509;SDS011;9896;42.486;26.506;2023-04-03T03:02:40;10.47;;;5.37;;
19509;SDS011;9896;42.486;26.506;2023-04-03T03:05:06;11.40;;;6.03;;
19509;SDS011;9896;42.486;26.506;2023-04-03T03:07:32;13.63;;;6.13;;
19509;SDS011;9896;42.486;26.506;2023-04-03T03:09:58;11.33;;;6.03;;
19509;SDS011;9896;42.486;26.506;2023-04-03T03:12:23;10.97;;;5.70;;
19509;SDS011;9896;42.486;26.506;2023-04-03T03:14:49;14.23;;;6.60;;
19509;SDS011;9896;42.486;26.506;2023-04-03T03:17:15;15.87;;;6.70;;
19509;SDS011;9896;42.486;26.506;2023-04-03T03:19:41;16.10;;;6.80;;
19509;SDS011;9896;42.486;26.506;2023-04-03T03:22:06;12.30;;;7.20;;
19509;SDS011;9896;42.486;26.506;2023-04-03T03:24:32;11.67;;;6.70;;
19509;SDS011;9896;42.486;26.506;2023-04-03T03:26:57;13.13;;;6.57;;
19509;SDS011;9896;42.486;26.506;2023-04-03T03:29:23;12.77;;;5.90;;
19509;SDS011;9896;42.486;26.506;2023-04-03T03:31:48;11.73;;;5.70;;
19509;SDS011;9896;42.486;26.506;2023-04-03T03:34:14;11.40;;;5.93;;
19509;SDS011;9896;42.486;26.506;2023-04-03T03:36:39;11.70;;;6.13;;
19509;SDS011;9896;42.486;26.506;2023-04-03T03:39:05;12.00;;;6.77;;
19509;SDS011;9896;42.486;26.506;2023-04-03T03:41:31;15.20;;;8.40;;
19509;SDS011;9896;42.486;26.506;2023-04-03T03:43:56;17.00;;;7.33;;
19509;SDS011;9896;42.486;26.506;2023-04-03T03:46:22;12.60;;;7.00;;
19509;SDS011;9896;42.486;26.506;2023-04-03T03:48:48;16.23;;;7.00;;
19509;SDS011;9896;42.486;26.506;2023-04-03T03:51:13;14.63;;;7.50;;
19509;SDS011;9896;42.486;26.506;2023-04-03T03:53:39;13.60;;;8.13;;
19509;SDS011;9896;42.486;26.506;2023-04-03T03:56:05;20.37;;;9.17;;
19509;SDS011;9896;42.486;26.506;2023-04-03T03:58:30;16.00;;;8.77;;
19509;SDS011;9896;42.486;26.506;2023-04-03T04:00:59;15.17;;;9.50;;
19509;SDS011;9896;42.486;26.506;2023-04-03T04:03:26;24.27;;;11.40;;
19509;SDS011;9896;42.486;26.506;2023-04-03T04:05:51;24.37;;;11.17;;
19509;SDS011;9896;42.486;26.506;2023-04-03T04:08:17;23.83;;;11.17;;
19509;SDS011;9896;42.486;26.506;2023-04-03T04:10:42;21.57;;;10.57;;
19509;SDS011;9896;42.486;26.506;2023-04-03T04:13:08;17.47;;;8.87;;
19509;SDS011;9896;42.486;26.506;2023-04-03T04:15:34;17.27;;;8.63;;
19509;SDS011;9896;42.486;26.506;2023-04-03T04:17:59;17.17;;;9.63;;
19509;SDS011;9896;42.486;26.506;2023-04-03T04:20:25;21.03;;;9.63;;
19509;SDS011;9896;42.486;26.506;2023-04-03T04:22:50;13.93;;;9.10;;
19509;SDS011;9896;42.486;26.506;2023-04-03T04:25:16;18.80;;;9.30;;
19509;SDS011;9896;42.486;26.506;2023-04-03T04:27:41;19.90;;;9.57;;
19509;SDS011;9896;42.486;26.506;2023-04-03T04:30:07;15.63;;;9.00;;
19509;SDS011;9896;42.486;26.506;2023-04-03T04:32:33;27.50;;;10.43;;
19509;SDS011;9896;42.486;26.506;2023-04-03T04:34:59;21.70;;;10.60;;
19509;SDS011;9896;42.486;26.506;2023-04-03T04:37:25;20.07;;;10.17;;
19509;SDS011;9896;42.486;26.506;2023-04-03T04:39:50;11.77;;;7.30;;
19509;SDS011;9896;42.486;26.506;2023-04-03T04:42:16;9.43;;;5.73;;
19509;SDS011;9896;42.486;26.506;2023-04-03T04:44:41;11.13;;;5.43;;
19509;SDS011;9896;42.486;26.506;2023-04-03T04:47:07;13.73;;;5.87;;
19509;SDS011;9896;42.486;26.506;2023-04-03T04:49:33;10.77;;;6.17;;
19509;SDS011;9896;42.486;26.506;2023-04-03T04:51:58;10.33;;;6.40;;
19509;SDS011;9896;42.486;26.506;2023-04-03T04:54:24;9.97;;;6.47;;
19509;SDS011;9896;42.486;26.506;2023-04-03T04:56:49;8.57;;;5.53;;
19509;SDS011;9896;42.486;26.506;2023-04-03T04:59:15;7.37;;;4.70;;
19509;SDS011;9896;42.486;26.506;2023-04-03T05:01:40;7.20;;;4.90;;
19509;SDS011;9896;42.486;26.506;2023-04-03T05:04:06;7.17;;;4.73;;
19509;SDS011;9896;42.486;26.506;2023-04-03T05:06:31;8.00;;;4.70;;
19509;SDS011;9896;42.486;26.506;2023-04-03T05:08:57;17.67;;;5.10;;
19509;SDS011;9896;42.486;26.506;2023-04-03T05:11:24;9.20;;;5.40;;
19509;SDS011;9896;42.486;26.506;2023-04-03T05:13:50;11.57;;;5.80;;
19509;SDS011;9896;42.486;26.506;2023-04-03T05:16:16;9.90;;;5.87;;
19509;SDS011;9896;42.486;26.506;2023-04-03T05:18:41;11.30;;;6.37;;
19509;SDS011;9896;42.486;26.506;2023-04-03T05:21:07;17.23;;;5.57;;
19509;SDS011;9896;42.486;26.506;2023-04-03T05:23:32;8.90;;;4.77;;
19509;SDS011;9896;42.486;26.506;2023-04-03T05:25:58;9.77;;;5.70;;
19509;SDS011;9896;42.486;26.506;2023-04-03T05:28:23;8.33;;;5.60;;
19509;SDS011;9896;42.486;26.506;2023-04-03T05:30:52;10.97;;;5.73;;
19509;SDS011;9896;42.486;26.506;2023-04-03T05:33:22;12.63;;;6.20;;
19509;SDS011;9896;42.486;26.506;2023-04-03T05:35:47;11.00;;;6.00;;
19509;SDS011;9896;42.486;26.506;2023-04-03T05:38:13;13.93;;;6.10;;
19509;SDS011;9896;42.486;26.506;2023-04-03T05:40:38;7.97;;;5.30;;
19509;SDS011;9896;42.486;26.506;2023-04-03T05:43:04;13.43;;;6.63;;
19509;SDS011;9896;42.486;26.506;2023-04-03T05:45:29;13.93;;;7.43;;
19509;SDS011;9896;42.486;26.506;2023-04-03T05:47:55;12.93;;;7.30;;
19509;SDS011;9896;42.486;26.506;2023-04-03T05:50:21;11.40;;;7.07;;
19509;SDS011;9896;42.486;26.506;2023-04-03T05:52:46;15.07;;;9.07;;
19509;SDS011;9896;42.486;26.506;2023-04-03T05:55:15;11.40;;;7.03;;
19509;SDS011;9896;42.486;26.506;2023-04-03T05:57:40;16.83;;;7.53;;
19509;SDS011;9896;42.486;26.506;2023-04-03T06:00:07;11.43;;;5.67;;
19509;SDS011;9896;42.486;26.506;2023-04-03T06:02:34;16.67;;;7.83;;
19509;SDS011;9896;42.486;26.506;2023-04-03T06:05:01;11.47;;;7.07;;
19509;SDS011;9896;42.486;26.506;2023-04-03T06:07:27;14.83;;;7.13;;
19509;SDS011;9896;42.486;26.506;2023-04-03T06:09:53;10.90;;;6.47;;
19509;SDS011;9896;42.486;26.506;2023-04-03T06:12:21;16.97;;;7.60;;
19509;SDS011;9896;42.486;26.506;2023-04-03T06:14:48;14.20;;;7.43;;
19509;SDS011;9896;42.486;26.506;2023-04-03T06:17:14;16.60;;;6.33;;
19509;SDS011;9896;42.486;26.506;2023-04-03T06:19:41;14.60;;;6.83;;
19509;SDS011;9896;42.486;26.506;2023-04-03T06:22:06;15.17;;;7.73;;
19509;SDS011;9896;42.486;26.506;2023-04-03T06:24:32;26.17;;;8.20;;
19509;SDS011;9896;42.486;26.506;2023-04-03T06:26:58;12.17;;;7.20;;
19509;SDS011;9896;42.486;26.506;2023-04-03T06:29:24;28.60;;;9.03;;
19509;SDS011;9896;42.486;26.506;2023-04-03T06:31:50;25.10;;;8.17;;
19509;SDS011;9896;42.486;26.506;2023-04-03T06:34:15;19.30;;;8.37;;
19509;SDS011;9896;42.486;26.506;2023-04-03T06:36:41;19.53;;;9.47;;
19509;SDS011;9896;42.486;26.506;2023-04-03T06:39:09;22.80;;;10.07;;
19509;SDS011;9896;42.486;26.506;2023-04-03T06:41:39;15.57;;;9.00;;
19509;SDS011;9896;42.486;26.506;2023-04-03T06:44:05;19.87;;;9.73;;
19509;SDS011;9896;42.486;26.506;2023-04-03T06:46:30;26.60;;;10.70;;
19509;SDS011;9896;42.486;26.506;2023-04-03T06:48:55;22.67;;;9.83;;
19509;SDS011;9896;42.486;26.506;2023-04-03T06:51:25;29.10;;;12.20;;
19509;SDS011;9896;42.486;26.506;2023-04-03T06:53:53;18.83;;;10.57;;
19509;SDS011;9896;42.486;26.506;2023-04-03T06:56:20;20.50;;;9.30;;
19509;SDS011;9896;42.486;26.506;2023-04-03T06:58:47;22.40;;;9.53;;
19509;SDS011;9896;42.486;26.506;2023-04-03T07:01:13;15.63;;;10.30;;
19509;SDS011;9896;42.486;26.506;2023-04-03T07:03:40;20.30;;;11.03;;
19509;SDS011;9896;42.486;26.506;2023-04-03T07:06:06;22.93;;;11.33;;
19509;SDS011;9896;42.486;26.506;2023-04-03T07:08:33;17.03;;;10.07;;
19509;SDS011;9896;42.486;26.506;2023-04-03T07:10:59;24.30;;;11.50;;
19509;SDS011;9896;42.486;26.506;2023-04-03T07:13:25;18.83;;;11.80;;
19509;SDS011;9896;42.486;26.506;2023-04-03T07:15:51;27.53;;;11.87;;
19509;SDS011;9896;42.486;26.506;2023-04-03T07:18:17;22.90;;;13.00;;
19509;SDS011;9896;42.486;26.506;2023-04-03T07:20:43;27.33;;;13.40;;
19509;SDS011;9896;42.486;26.506;2023-04-03T07:23:09;27.17;;;13.67;;
19509;SDS011;9896;42.486;26.506;2023-04-03T07:25:35;27.70;;;13.30;;
19509;SDS011;9896;42.486;26.506;2023-04-03T07:28:01;22.50;;;12.57;;
19509;SDS011;9896;42.486;26.506;2023-04-03T07:30:26;21.30;;;11.93;;
19509;SDS011;9896;42.486;26.506;2023-04-03T07:32:52;31.33;;;14.40;;
19509;SDS011;9896;42.486;26.506;2023-04-03T07:35:17;26.77;;;14.43;;
19509;SDS011;9896;42.486;26.506;2023-04-03T07:37:43;28.73;;;15.27;;
19509;SDS011;9896;42.486;26.506;2023-04-03T07:40:09;29.90;;;15.37;;
19509;SDS011;9896;42.486;26.506;2023-04-03T07:42:36;27.97;;;15.40;;
19509;SDS011;9896;42.486;26.506;2023-04-03T07:45:02;25.53;;;15.67;;
19509;SDS011;9896;42.486;26.506;2023-04-03T07:47:28;27.50;;;16.73;;
19509;SDS011;9896;42.486;26.506;2023-04-03T07:49:54;37.23;;;18.10;;
19509;SDS011;9896;42.486;26.506;2023-04-03T07:52:22;34.10;;;19.30;;
19509;SDS011;9896;42.486;26.506;2023-04-03T07:54:47;43.37;;;19.80;;
19509;SDS011;9896;42.486;26.506;2023-04-03T07:57:13;36.40;;;19.17;;
19509;SDS011;9896;42.486;26.506;2023-04-03T07:59:38;36.03;;;20.07;;
19509;SDS011;9896;42.486;26.506;2023-04-03T08:02:07;40.27;;;18.33;;
19509;SDS011;9896;42.486;26.506;2023-04-03T08:04:34;30.73;;;16.10;;
19509;SDS011;9896;42.486;26.506;2023-04-03T08:07:00;30.27;;;14.83;;
19509;SDS011;9896;42.486;26.506;2023-04-03T08:09:26;26.87;;;16.33;;
19509;SDS011;9896;42.486;26.506;2023-04-03T08:11:51;16.60;;;9.50;;
19509;SDS011;9896;42.486;26.506;2023-04-03T08:14:18;17.97;;;8.87;;
19509;SDS011;9896;42.486;26.506;2023-04-03T08:16:44;13.97;;;8.57;;
19509;SDS011;9896;42.486;26.506;2023-04-03T08:19:11;9.00;;;6.30;;
19509;SDS011;9896;42.486;26.506;2023-04-03T08:21:39;17.67;;;6.83;;
19509;SDS011;9896;42.486;26.506;2023-04-03T08:24:06;10.37;;;5.30;;
19509;SDS011;9896;42.486;26.506;2023-04-03T08:26:32;12.20;;;4.60;;
19509;SDS011;9896;42.486;26.506;2023-04-03T08:28:58;13.87;;;6.60;;
19509;SDS011;9896;42.486;26.506;2023-04-03T08:31:23;9.07;;;5.30;;
19509;SDS011;9896;42.486;26.506;2023-04-03T08:33:49;10.90;;;4.73;;
19509;SDS011;9896;42.486;26.506;2023-04-03T08:36:22;6.60;;;3.83;;
19509;SDS011;9896;42.486;26.506;2023-04-03T08:38:49;4.13;;;3.10;;
19509;SDS011;9896;42.486;26.506;2023-04-03T08:41:19;11.70;;;3.43;;
19509;SDS011;9896;42.486;26.506;2023-04-03T08:44:01;4.60;;;3.40;;
19509;SDS011;9896;42.486;26.506;2023-04-03T08:49:13;5.07;;;2.70;;
19509;SDS011;9896;42.486;26.506;2023-04-03T08:51:46;4.97;;;2.90;;
19509;SDS011;9896;42.486;26.506;2023-04-03T08:54:19;7.17;;;3.60;;
19509;SDS011;9896;42.486;26.506;2023-04-03T08:57:03;5.20;;;3.40;;
19509;SDS011;9896;42.486;26.506;2023-04-03T08:59:33;3.77;;;2.73;;
19509;SDS011;9896;42.486;26.506;2023-04-03T09:02:03;5.53;;;3.60;;
19509;SDS011;9896;42.486;26.506;2023-04-03T09:04:49;7.27;;;2.60;;
19509;SDS011;9896;42.486;26.506;2023-04-03T09:07:17;6.23;;;3.00;;
19509;SDS011;9896;42.486;26.506;2023-04-03T09:09:50;5.77;;;3.20;;
19509;SDS011;9896;42.486;26.506;2023-04-03T09:12:23;4.93;;;2.30;;
19509;SDS011;9896;42.486;26.506;2023-04-03T09:22:41;10.57;;;3.90;;
19509;SDS011;9896;42.486;26.506;2023-04-03T09:27:40;6.03;;;2.90;;
19509;SDS011;9896;42.486;26.506;2023-04-03T09:30:06;4.47;;;3.27;;
19509;SDS011;9896;42.486;26.506;2023-04-03T09:32:37;8.67;;;2.90;;
19509;SDS011;9896;42.486;26.506;2023-04-03T09:35:25;3.37;;;2.00;;
19509;SDS011;9896;42.486;26.506;2023-04-03T09:37:54;4.87;;;1.97;;
19509;SDS011;9896;42.486;26.506;2023-04-03T09:42:51;4.73;;;1.80;;
19509;SDS011;9896;42.486;26.506;2023-04-03T09:53:39;4.20;;;2.20;;
19509;SDS011;9896;42.486;26.506;2023-04-03T09:58:42;2.37;;;1.67;;
19509;SDS011;9896;42.486;26.506;2023-04-03T10:04:22;2.50;;;1.90;;
19509;SDS011;9896;42.486;26.506;2023-04-03T10:06:49;2.30;;;1.40;;
19509;SDS011;9896;42.486;26.506;2023-04-03T10:12:00;2.40;;;1.40;;
19509;SDS011;9896;42.486;26.506;2023-04-03T10:14:35;35.50;;;2.97;;
19509;SDS011;9896;42.486;26.506;2023-04-03T10:38:55;6.30;;;1.70;;
19509;SDS011;9896;42.486;26.506;2023-04-03T10:41:47;3.93;;;1.13;;
19509;SDS011;9896;42.486;26.506;2023-04-03T10:47:08;2.10;;;1.30;;
19509;SDS011;9896;42.486;26.506;2023-04-03T10:49:52;3.40;;;2.10;;
19509;SDS011;9896;42.486;26.506;2023-04-03T10:52:30;2.20;;;1.47;;
19509;SDS011;9896;42.486;26.506;2023-04-03T10:57:38;3.63;;;1.30;;
19509;SDS011;9896;42.486;26.506;2023-04-03T11:00:19;3.40;;;1.20;;
19509;SDS011;9896;42.486;26.506;2023-04-03T11:05:26;2.30;;;1.90;;
19509;SDS011;9896;42.486;26.506;2023-04-03T11:11:20;4.30;;;1.80;;
19509;SDS011;9896;42.486;26.506;2023-04-03T11:16:27;2.23;;;1.57;;
19509;SDS011;9896;42.486;26.506;2023-04-03T11:21:42;2.47;;;1.97;;
19509;SDS011;9896;42.486;26.506;2023-04-03T11:24:17;7.97;;;2.60;;
19509;SDS011;9896;42.486;26.506;2023-04-03T11:26:49;2.80;;;2.00;;
19509;SDS011;9896;42.486;26.506;2023-04-03T11:29:22;4.13;;;2.33;;
19509;SDS011;9896;42.486;26.506;2023-04-03T11:37:04;2.63;;;2.40;;
19509;SDS011;9896;42.486;26.506;2023-04-03T11:39:38;11.87;;;3.13;;
19509;SDS011;9896;42.486;26.506;2023-04-03T12:05:54;3.10;;;1.80;;
19509;SDS011;9896;42.486;26.506;2023-04-03T12:19:03;2.00;;;1.47;;
19509;SDS011;9896;42.486;26.506;2023-04-03T12:48:12;5.23;;;2.33;;
19509;SDS011;9896;42.486;26.506;2023-04-03T12:50:41;2.93;;;1.90;;
19509;SDS011;9896;42.486;26.506;2023-04-03T12:53:16;3.10;;;1.80;;
19509;SDS011;9896;42.486;26.506;2023-04-03T12:55:53;2.87;;;2.00;;
19509;SDS011;9896;42.486;26.506;2023-04-03T12:58:24;2.77;;;2.03;;
19509;SDS011;9896;42.486;26.506;2023-04-03T13:01:04;3.43;;;2.30;;
19509;SDS011;9896;42.486;26.506;2023-04-03T13:03:40;2.80;;;2.10;;
19509;SDS011;9896;42.486;26.506;2023-04-03T13:06:42;2.77;;;2.00;;
19509;SDS011;9896;42.486;26.506;2023-04-03T13:09:06;4.93;;;2.40;;
19509;SDS011;9896;42.486;26.506;2023-04-03T13:11:42;3.30;;;2.10;;
19509;SDS011;9896;42.486;26.506;2023-04-03T13:14:17;7.57;;;3.97;;
19509;SDS011;9896;42.486;26.506;2023-04-03T13:17:05;8.23;;;3.60;;
19509;SDS011;9896;42.486;26.506;2023-04-03T13:19:37;3.87;;;2.83;;
19509;SDS011;9896;42.486;26.506;2023-04-03T13:22:08;3.47;;;1.90;;
19509;SDS011;9896;42.486;26.506;2023-04-03T13:24:46;2.10;;;2.00;;
19509;SDS011;9896;42.486;26.506;2023-04-03T13:27:13;3.70;;;1.70;;
19509;SDS011;9896;42.486;26.506;2023-04-03T13:29:40;2.30;;;1.70;;
19509;SDS011;9896;42.486;26.506;2023-04-03T13:32:06;2.13;;;1.90;;
19509;SDS011;9896;42.486;26.506;2023-04-03T13:34:36;2.87;;;2.27;;
19509;SDS011;9896;42.486;26.506;2023-04-03T13:37:11;1.67;;;1.57;;
19509;SDS011;9896;42.486;26.506;2023-04-03T13:40:09;2.00;;;1.60;;
19509;SDS011;9896;42.486;26.506;2023-04-03T13:42:40;2.93;;;2.10;;
19509;SDS011;9896;42.486;26.506;2023-04-03T13:45:11;3.90;;;2.00;;
19509;SDS011;9896;42.486;26.506;2023-04-03T13:47:45;4.60;;;2.40;;
19509;SDS011;9896;42.486;26.506;2023-04-03T13:50:14;6.43;;;2.00;;
19509;SDS011;9896;42.486;26.506;2023-04-03T13:52:46;2.10;;;1.90;;
19509;SDS011;9896;42.486;26.506;2023-04-03T13:55:20;3.47;;;2.10;;
19509;SDS011;9896;42.486;26.506;2023-04-03T13:57:49;2.20;;;1.93;;
19509;SDS011;9896;42.486;26.506;2023-04-03T14:00:36;2.53;;;2.00;;
19509;SDS011;9896;42.486;26.506;2023-04-03T14:03:18;2.27;;;2.07;;
19509;SDS011;9896;42.486;26.506;2023-04-03T14:05:50;3.77;;;2.57;;
19509;SDS011;9896;42.486;26.506;2023-04-03T14:08:16;5.20;;;2.90;;
19509;SDS011;9896;42.486;26.506;2023-04-03T14:10:43;8.07;;;4.60;;
19509;SDS011;9896;42.486;26.506;2023-04-03T14:13:13;8.70;;;3.50;;
19509;SDS011;9896;42.486;26.506;2023-04-03T14:15:40;8.33;;;3.63;;
19509;SDS011;9896;42.486;26.506;2023-04-03T14:18:10;6.13;;;3.60;;
19509;SDS011;9896;42.486;26.506;2023-04-03T14:20:39;35.43;;;5.13;;
19509;SDS011;9896;42.486;26.506;2023-04-03T14:23:05;10.23;;;3.77;;
19509;SDS011;9896;42.486;26.506;2023-04-03T14:25:31;8.30;;;4.57;;
19509;SDS011;9896;42.486;26.506;2023-04-03T14:27:57;7.17;;;4.50;;
19509;SDS011;9896;42.486;26.506;2023-04-03T14:30:30;5.33;;;4.57;;
19509;SDS011;9896;42.486;26.506;2023-04-03T14:32:57;7.17;;;4.57;;
19509;SDS011;9896;42.486;26.506;2023-04-03T14:35:23;8.00;;;4.30;;
19509;SDS011;9896;42.486;26.506;2023-04-03T14:37:50;7.70;;;5.20;;
19509;SDS011;9896;42.486;26.506;2023-04-03T14:40:18;10.10;;;5.40;;
19509;SDS011;9896;42.486;26.506;2023-04-03T14:42:47;11.50;;;5.57;;
19509;SDS011;9896;42.486;26.506;2023-04-03T14:45:14;7.93;;;5.63;;
19509;SDS011;9896;42.486;26.506;2023-04-03T14:47:42;8.20;;;5.70;;
19509;SDS011;9896;42.486;26.506;2023-04-03T14:50:15;7.77;;;5.27;;
19509;SDS011;9896;42.486;26.506;2023-04-03T14:52:43;10.33;;;6.63;;
19509;SDS011;9896;42.486;26.506;2023-04-03T14:55:11;14.87;;;7.37;;
19509;SDS011;9896;42.486;26.506;2023-04-03T14:57:39;9.57;;;6.23;;
19509;SDS011;9896;42.486;26.506;2023-04-03T15:00:06;8.07;;;5.43;;
19509;SDS011;9896;42.486;26.506;2023-04-03T15:02:36;9.30;;;5.87;;
19509;SDS011;9896;42.486;26.506;2023-04-03T15:05:05;10.40;;;6.60;;
19509;SDS011;9896;42.486;26.506;2023-04-03T15:07:34;10.33;;;6.50;;
19509;SDS011;9896;42.486;26.506;2023-04-03T15:10:05;11.33;;;7.20;;
19509;SDS011;9896;42.486;26.506;2023-04-03T15:12:52;10.37;;;7.27;;
19509;SDS011;9896;42.486;26.506;2023-04-03T15:15:19;13.97;;;8.90;;
19509;SDS011;9896;42.486;26.506;2023-04-03T15:17:46;16.47;;;10.13;;
19509;SDS011;9896;42.486;26.506;2023-04-03T15:20:20;21.00;;;11.73;;
19509;SDS011;9896;42.486;26.506;2023-04-03T15:22:48;19.93;;;9.77;;
19509;SDS011;9896;42.486;26.506;2023-04-03T15:25:13;12.03;;;8.10;;
19509;SDS011;9896;42.486;26.506;2023-04-03T15:27:40;14.77;;;8.33;;
19509;SDS011;9896;42.486;26.506;2023-04-03T15:30:06;14.90;;;8.13;;
19509;SDS011;9896;42.486;26.506;2023-04-03T15:32:33;22.93;;;12.83;;
19509;SDS011;9896;42.486;26.506;2023-04-03T15:35:00;15.03;;;8.97;;
19509;SDS011;9896;42.486;26.506;2023-04-03T15:37:26;47.00;;;9.33;;
19509;SDS011;9896;42.486;26.506;2023-04-03T15:39:52;12.30;;;7.97;;
19509;SDS011;9896;42.486;26.506;2023-04-03T15:42:17;14.47;;;8.10;;
19509;SDS011;9896;42.486;26.506;2023-04-03T15:44:44;13.93;;;7.87;;
19509;SDS011;9896;42.486;26.506;2023-04-03T15:47:09;15.43;;;9.67;;
19509;SDS011;9896;42.486;26.506;2023-04-03T15:49:35;20.70;;;8.73;;
19509;SDS011;9896;42.486;26.506;2023-04-03T15:52:01;12.13;;;8.20;;
19509;SDS011;9896;42.486;26.506;2023-04-03T15:54:27;11.13;;;7.63;;
19509;SDS011;9896;42.486;26.506;2023-04-03T15:56:54;12.40;;;7.90;;
19509;SDS011;9896;42.486;26.506;2023-04-03T15:59:20;11.53;;;7.13;;
19509;SDS011;9896;42.486;26.506;2023-04-03T16:01:46;13.27;;;7.63;;
19509;SDS011;9896;42.486;26.506;2023-04-03T16:04:13;13.07;;;7.30;;
19509;SDS011;9896;42.486;26.506;2023-04-03T16:06:39;14.70;;;7.13;;
19509;SDS011;9896;42.486;26.506;2023-04-03T16:09:06;11.20;;;7.77;;
19509;SDS011;9896;42.486;26.506;2023-04-03T16:11:32;89.40;;;9.23;;
19509;SDS011;9896;42.486;26.506;2023-04-03T16:14:00;10.93;;;7.30;;
19509;SDS011;9896;42.486;26.506;2023-04-03T16:16:25;10.53;;;7.13;;
19509;SDS011;9896;42.486;26.506;2023-04-03T16:18:52;203.53;;;16.33;;
19509;SDS011;9896;42.486;26.506;2023-04-03T16:21:19;14.23;;;8.30;;
19509;SDS011;9896;42.486;26.506;2023-04-03T16:23:45;15.27;;;8.93;;
19509;SDS011;9896;42.486;26.506;2023-04-03T16:26:11;13.60;;;8.43;;
19509;SDS011;9896;42.486;26.506;2023-04-03T16:28:38;14.07;;;7.47;;
19509;SDS011;9896;42.486;26.506;2023-04-03T16:31:03;13.90;;;8.87;;
19509;SDS011;9896;42.486;26.506;2023-04-03T16:33:30;12.73;;;8.13;;
19509;SDS011;9896;42.486;26.506;2023-04-03T16:35:56;14.30;;;8.30;;
19509;SDS011;9896;42.486;26.506;2023-04-03T16:38:21;14.27;;;7.43;;
19509;SDS011;9896;42.486;26.506;2023-04-03T16:40:47;10.07;;;6.73;;
19509;SDS011;9896;42.486;26.506;2023-04-03T16:43:14;9.73;;;6.90;;
19509;SDS011;9896;42.486;26.506;2023-04-03T16:45:39;9.10;;;6.13;;
19509;SDS011;9896;42.486;26.506;2023-04-03T16:48:05;8.20;;;5.53;;
19509;SDS011;9896;42.486;26.506;2023-04-03T16:50:31;12.77;;;7.40;;
19509;SDS011;9896;42.486;26.506;2023-04-03T16:52:56;12.50;;;7.50;;
19509;SDS011;9896;42.486;26.506;2023-04-03T16:55:22;8.90;;;5.90;;
19509;SDS011;9896;42.486;26.506;2023-04-03T16:57:47;10.73;;;6.97;;
19509;SDS011;9896;42.486;26.506;2023-04-03T17:00:13;15.63;;;8.17;;
19509;SDS011;9896;42.486;26.506;2023-04-03T17:02:40;13.23;;;7.67;;
19509;SDS011;9896;42.486;26.506;2023-04-03T17:05:05;11.27;;;6.70;;